createdAt,value
2023-01-07T00:04:25.744Z,12.45432
2023-01-07T00:09:27.413Z,11.47247
2023-01-07T00:14:29.010Z,11.80259
2023-01-07T00:19:30.597Z,12.301446
2023-01-07T00:24:33.128Z,11.60708
2023-01-07T00:29:34.760Z,12.29633
2023-01-07T00:34:36.292Z,11.89333
2023-01-07T00:39:37.864Z,12.296154
2023-01-07T00:44:39.324Z,12.563162
2023-01-07T00:49:40.770Z,12.254062
2023-01-07T00:54:42.433Z,12.35529
2023-01-07T00:59:44.133Z,12.755578
2023-01-07T01:04:45.855Z,11.889692
2023-01-07T01:09:47.621Z,11.851738
2023-01-07T01:14:49.151Z,11.655794
2023-01-07T01:19:50.594Z,11.77727
2023-01-07T01:24:52.661Z,12.256436
2023-01-07T01:29:54.383Z,12.41178
2023-01-07T01:34:56.124Z,12.333226
2023-01-07T01:39:57.958Z,11.774948
2023-01-07T01:44:59.475Z,11.770972
2023-01-07T01:50:01.235Z,12.03798
2023-01-07T01:55:03.285Z,11.612872
2023-01-07T02:00:05.019Z,12.024192
2023-01-07T02:05:06.511Z,11.74671
2023-01-07T02:10:08.167Z,12.41885
2023-01-07T02:15:09.810Z,12.405496
2023-01-07T02:20:11.524Z,12.579824
2023-01-07T02:25:13.173Z,11.621816
2023-01-07T02:30:14.622Z,12.898912
2023-01-07T02:35:16.125Z,11.990758
2023-01-07T02:40:17.856Z,12.31724
2023-01-07T02:45:19.629Z,12.097292
2023-01-07T02:50:21.169Z,12.574084
2023-01-07T02:55:23.235Z,13.175078
2023-01-07T03:00:24.922Z,12.772864
2023-01-07T03:05:26.599Z,11.811586
2023-01-07T03:10:28.129Z,11.93648
2023-01-07T03:15:29.608Z,11.969576
2023-01-07T03:20:31.299Z,12.170826
2023-01-07T03:25:33.438Z,12.025618
2023-01-07T03:30:34.946Z,12.44478
2023-01-07T03:35:36.401Z,11.97134
2023-01-07T03:40:37.893Z,12.885234
2023-01-07T03:45:39.662Z,12.682044
2023-01-07T03:50:41.589Z,12.255282
2023-01-07T03:55:43.755Z,12.597382
2023-01-07T04:00:45.386Z,12.373458
2023-01-07T04:05:47.257Z,12.986286
2023-01-07T04:10:49.033Z,13.293798
2023-01-07T04:15:50.823Z,13.055042
2023-01-07T04:20:52.569Z,12.776392
2023-01-07T04:25:54.883Z,12.968374
2023-01-07T04:30:56.694Z,13.214024
2023-01-07T04:35:58.235Z,12.156156
2023-01-07T04:40:59.710Z,13.382068
2023-01-07T04:46:01.533Z,12.942944
2023-01-07T04:51:03.282Z,12.906144
2023-01-07T04:56:05.956Z,12.755306
2023-01-07T05:01:07.789Z,12.31161
2023-01-07T05:06:09.634Z,12.64911
2023-01-07T05:11:11.401Z,12.724408
2023-01-07T05:16:13.060Z,13.203154
2023-01-07T05:21:14.853Z,13.824382
2023-01-07T05:26:16.911Z,13.100228
2023-01-07T05:31:18.736Z,14.433328
2023-01-07T05:36:20.547Z,13.69277
2023-01-07T05:41:22.315Z,13.67114
2023-01-07T05:46:24.118Z,13.82544
2023-01-07T05:51:25.830Z,14.184856
2023-01-07T05:56:27.764Z,14.430234
2023-01-07T06:01:29.476Z,14.18795
2023-01-07T06:06:31.121Z,13.72189
2023-01-07T06:11:32.662Z,14.533864
2023-01-07T06:16:34.191Z,14.336672
2023-01-07T06:21:35.772Z,15.08563
2023-01-07T06:26:37.400Z,14.269502
2023-01-07T06:31:39.191Z,13.919612
2023-01-07T06:36:40.934Z,13.962424
2023-01-07T06:41:42.735Z,13.82985
2023-01-07T06:46:44.328Z,15.051556
2023-01-07T06:51:45.857Z,15.016954
2023-01-07T06:56:47.711Z,13.921376
2023-01-07T07:01:49.374Z,15.910414
2023-01-07T07:06:51.229Z,15.499338
2023-01-07T07:11:53.003Z,15.43879
2023-01-07T07:16:54.793Z,14.512764
2023-01-07T07:21:56.537Z,14.985446
2023-01-07T07:26:58.652Z,14.816858
2023-01-07T07:32:00.303Z,16.09595
2023-01-07T07:37:01.986Z,16.578876
2023-01-07T07:42:03.677Z,16.51073
2023-01-07T07:47:05.420Z,16.965148
2023-01-07T07:52:07.078Z,16.828326
2023-01-07T07:57:09.094Z,18.241894
2023-01-07T08:02:10.852Z,17.36051
2023-01-07T08:07:12.624Z,17.647398
2023-01-07T08:12:14.472Z,17.568464
2023-01-07T08:17:16.127Z,17.987234
2023-01-07T08:22:17.845Z,18.310936
2023-01-07T08:27:19.799Z,19.265338
2023-01-07T08:32:21.563Z,20.138798
2023-01-07T08:37:23.330Z,22.401322
2023-01-07T08:42:25.115Z,19.659846
2023-01-07T08:47:26.903Z,19.821826
2023-01-07T08:52:28.640Z,19.091878
2023-01-07T08:57:30.377Z,20.123722
2023-01-07T09:02:32.022Z,21.160058
2023-01-07T09:07:33.787Z,19.104796
2023-01-07T09:12:35.391Z,20.23734
2023-01-07T09:17:36.918Z,21.401162
2023-01-07T09:22:38.471Z,20.459162
2023-01-07T09:27:40.317Z,19.95398
2023-01-07T09:32:41.784Z,18.854722
2023-01-07T09:37:43.267Z,20.841132
2023-01-07T09:42:44.789Z,19.868098
2023-01-07T09:47:46.576Z,22.16494
2023-01-07T09:52:47.992Z,21.588314
2023-01-07T09:57:49.714Z,21.771042
2023-01-07T10:02:51.220Z,22.781732
2023-01-07T10:07:53.028Z,20.341188
2023-01-07T10:13:31.073Z,21.860384
2023-01-07T10:18:32.507Z,23.26063
2023-01-07T10:23:33.982Z,20.580284
2023-01-07T10:28:35.890Z,22.597484
2023-01-07T10:33:37.333Z,21.63863
2023-01-07T10:38:38.795Z,21.092644
2023-01-07T10:43:40.282Z,21.931896
2023-01-07T10:48:41.925Z,23.98009
2023-01-07T10:53:43.589Z,23.4182
2023-01-07T10:58:45.449Z,21.80213
2023-01-07T11:03:47.193Z,23.259938
2023-01-07T11:08:48.620Z,22.56413
2023-01-07T11:13:50.374Z,23.45146
2023-01-07T11:18:52.136Z,24.259828
2023-01-07T11:23:53.884Z,23.120904
2023-01-07T11:28:55.832Z,23.164612
2023-01-07T11:34:02.474Z,23.48902
2023-01-07T11:39:06.043Z,22.462616
2023-01-07T11:44:07.741Z,22.702038
2023-01-07T11:49:09.364Z,23.592556
2023-01-07T11:54:11.077Z,22.586642
2023-01-07T11:59:12.901Z,23.385796
2023-01-07T12:04:14.653Z,25.033878
2023-01-07T12:09:16.142Z,23.953358
2023-01-07T12:14:17.773Z,24.586258
2023-01-07T12:19:19.509Z,23.479752
2023-01-07T12:24:21.305Z,22.927836
2023-01-07T12:29:23.372Z,23.236748
2023-01-07T12:34:25.200Z,22.787174
2023-01-07T12:39:26.977Z,21.508362
2023-01-07T12:44:28.927Z,23.466956
2023-01-07T12:49:30.584Z,23.334924
2023-01-07T12:54:32.052Z,23.065988
2023-01-07T12:59:47.198Z,22.99164
2023-01-07T13:04:50.011Z,23.807512
2023-01-07T13:09:51.838Z,23.930412
2023-01-07T13:14:53.425Z,23.7
2023-01-07T13:19:54.958Z,24.223
2023-01-07T13:24:56.979Z,25.12432
2023-01-07T13:29:58.711Z,24.960806
2023-01-07T13:35:00.276Z,24.390042
2023-01-07T13:40:01.920Z,21.741216
2023-01-07T13:45:03.702Z,24.355018
2023-01-07T13:50:05.272Z,24.239812
2023-01-07T13:55:06.955Z,23.852238
2023-01-07T14:00:08.696Z,23.837474
2023-01-07T14:05:11.272Z,24.34575
2023-01-07T14:10:13.029Z,24.06106
2023-01-07T14:15:14.793Z,23.80108
2023-01-07T14:20:16.469Z,24.031926
2023-01-07T14:25:18.114Z,23.25181
2023-01-07T14:30:20.183Z,23.704424
2023-01-07T14:35:21.661Z,22.816796
2023-01-07T14:40:23.256Z,24.379688
2023-01-07T14:45:25.117Z,25.194258
2023-01-07T14:50:26.917Z,23.532334
2023-01-07T14:55:28.375Z,24.410192
2023-01-07T15:00:30.058Z,24.423436
2023-01-07T15:05:31.501Z,23.876948
2023-01-07T15:10:32.979Z,23.311788
2023-01-07T15:15:34.471Z,22.35699
2023-01-07T15:20:35.961Z,21.869652
2023-01-07T15:25:37.558Z,22.390982
2023-01-07T15:30:39.325Z,22.494206
2023-01-07T15:35:40.850Z,22.911946
2023-01-07T15:40:42.523Z,21.908312
2023-01-07T15:45:44.292Z,22.104718
2023-01-07T15:50:45.939Z,22.787662
2023-01-07T15:55:47.540Z,22.299306
2023-01-07T16:00:49.280Z,21.980638
2023-01-07T16:05:50.813Z,22.04607
2023-01-07T16:10:52.288Z,21.58655
2023-01-07T16:15:54.099Z,21.250024
2023-01-07T16:20:55.905Z,20.612498
2023-01-07T16:25:57.630Z,21.250472
2023-01-07T16:30:59.587Z,21.238992
2023-01-07T16:36:01.309Z,21.012068
2023-01-07T16:41:03.064Z,21.471534
2023-01-07T16:46:04.817Z,21.232316
2023-01-07T16:51:06.572Z,20.816544
2023-01-07T16:56:08.328Z,21.090636
2023-01-07T17:01:10.513Z,20.767802
2023-01-07T17:06:12.211Z,19.961416
2023-01-07T17:11:15.439Z,20.141566
2023-01-07T17:16:18.274Z,19.646724
2023-01-07T17:21:20.026Z,19.67674
2023-01-07T17:26:21.773Z,19.971824
2023-01-07T17:31:23.899Z,19.29017
2023-01-07T17:36:25.715Z,19.449056
2023-01-07T17:41:27.483Z,18.580644
2023-01-07T17:46:29.314Z,18.989848
2023-01-07T17:51:31.050Z,18.607634
2023-01-07T17:56:32.686Z,18.194522
2023-01-07T18:01:34.590Z,18.182608
2023-01-07T18:06:36.116Z,18.220562
2023-01-07T18:11:37.630Z,18.230278
2023-01-07T18:16:39.188Z,18.077566
2023-01-07T18:21:40.831Z,18.153922
2023-01-07T18:26:42.692Z,18.6681
2023-01-07T18:31:44.610Z,18.085504
2023-01-07T18:36:46.285Z,18.255164
2023-01-07T18:41:47.912Z,18.81993
2023-01-07T18:46:49.712Z,18.197168
2023-01-07T18:51:51.336Z,18.172458
2023-01-07T18:56:52.996Z,18.132726
2023-01-07T19:01:55.226Z,17.5526
2023-01-07T19:06:56.944Z,17.164036
2023-01-07T19:11:58.645Z,17.072306
2023-01-07T19:17:00.183Z,16.730788
2023-01-07T19:22:01.966Z,16.008738
2023-01-07T19:27:03.431Z,16.044588
2023-01-07T19:32:05.469Z,15.860802
2023-01-07T19:37:07.212Z,16.101784
2023-01-07T19:42:08.823Z,16.263846
2023-01-07T19:47:10.708Z,16.626628
2023-01-07T19:52:12.475Z,15.852688
2023-01-07T19:57:14.120Z,16.172834
2023-01-07T20:02:16.436Z,15.432072
2023-01-07T20:07:18.349Z,15.84129
2023-01-07T20:12:20.121Z,15.671548
2023-01-07T20:17:21.899Z,15.19755
2023-01-07T20:22:24.239Z,16.395362
2023-01-07T20:27:26.001Z,15.450432
2023-01-07T20:32:27.999Z,14.677036
2023-01-07T20:37:29.774Z,15.426876
2023-01-07T20:42:31.448Z,15.236034
2023-01-07T20:47:33.048Z,14.03559
2023-01-07T20:52:34.656Z,14.472068
2023-01-07T20:57:36.251Z,15.46156
2023-01-07T21:02:38.170Z,14.27744
2023-01-07T21:07:39.922Z,14.69142
2023-01-07T21:12:41.368Z,13.692226
2023-01-07T21:17:42.848Z,13.751024
2023-01-07T21:22:45.920Z,14.409838
2023-01-07T21:27:49.337Z,14.181056
2023-01-07T21:32:51.439Z,13.788706
2023-01-07T21:37:53.229Z,13.28586
2023-01-07T21:42:54.785Z,13.793116
2023-01-07T21:47:56.286Z,14.1943
2023-01-07T21:52:57.790Z,13.973456
2023-01-07T21:57:59.573Z,13.225666
2023-01-07T22:03:01.615Z,13.59241
2023-01-07T22:08:03.364Z,13.240402
2023-01-07T22:13:05.149Z,13.89022
2023-01-07T22:18:06.729Z,13.707058
2023-01-07T22:23:08.428Z,13.555066
2023-01-07T22:28:09.967Z,13.223182
2023-01-07T22:33:11.709Z,13.751024
2023-01-07T22:38:13.493Z,13.220374
2023-01-07T22:43:14.999Z,13.42488
2023-01-07T22:48:16.526Z,13.751906
2023-01-07T22:53:18.140Z,12.834198
2023-01-07T22:58:19.634Z,13.413224
2023-01-07T23:03:21.386Z,12.762538
2023-01-07T23:08:23.073Z,12.405158
2023-01-07T23:13:24.555Z,12.828024
2023-01-07T23:18:26.152Z,13.000412
2023-01-07T23:23:27.646Z,12.481852
2023-01-07T23:28:29.211Z,13.25727
2023-01-07T23:33:30.988Z,13.588434
2023-01-07T23:38:32.547Z,12.583528
2023-01-07T23:43:34.070Z,13.053102
2023-01-07T23:48:35.589Z,12.834036
2023-01-07T23:53:37.078Z,12.709032
2023-01-07T23:58:38.781Z,12.989556
